createdAt,value
2018-05-09T00:00:59.280Z,15.72
2018-05-09T00:01:59.272Z,15.75
2018-05-09T00:02:59.271Z,15.68
2018-05-09T00:03:59.272Z,15.65
2018-05-09T00:04:59.273Z,15.67
2018-05-09T00:05:59.274Z,15.65
2018-05-09T00:06:59.278Z,15.61
2018-05-09T00:07:59.277Z,15.61
2018-05-09T00:08:59.279Z,15.59
2018-05-09T00:09:59.278Z,15.65
2018-05-09T00:10:59.279Z,15.61
2018-05-09T00:11:59.392Z,15.64
2018-05-09T00:12:59.282Z,15.65
2018-05-09T00:13:59.282Z,15.64
2018-05-09T00:14:59.285Z,15.59
2018-05-09T00:15:59.288Z,15.62
2018-05-09T00:16:59.289Z,15.61
2018-05-09T00:17:59.285Z,15.59
2018-05-09T00:18:59.289Z,15.52
2018-05-09T00:19:59.287Z,15.55
2018-05-09T00:20:59.288Z,15.52
2018-05-09T00:21:59.290Z,15.54
2018-05-09T00:22:59.290Z,15.55
2018-05-09T00:23:59.294Z,15.54
2018-05-09T00:24:59.291Z,15.46
2018-05-09T00:25:59.293Z,15.43
2018-05-09T00:26:59.295Z,15.43
2018-05-09T00:27:59.295Z,15.47
2018-05-09T00:28:59.299Z,15.44
2018-05-09T00:29:59.299Z,15.43
2018-05-09T00:30:59.297Z,15.35
2018-05-09T00:31:59.303Z,15.37
2018-05-09T00:32:59.298Z,15.42
2018-05-09T00:33:59.299Z,15.37
2018-05-09T00:34:59.301Z,15.29
2018-05-09T00:35:59.300Z,15.35
2018-05-09T00:36:59.300Z,15.35
2018-05-09T00:37:59.302Z,15.31
2018-05-09T00:38:59.311Z,15.28
2018-05-09T00:39:59.303Z,15.28
2018-05-09T00:40:59.305Z,15.29
2018-05-09T00:41:59.305Z,15.27
2018-05-09T00:42:59.304Z,15.27
2018-05-09T00:43:59.304Z,15.24
2018-05-09T00:44:59.308Z,15.22
2018-05-09T00:45:59.311Z,15.21
2018-05-09T00:46:59.313Z,15.19
2018-05-09T00:47:59.308Z,15.19
2018-05-09T00:48:59.310Z,15.11
2018-05-09T00:49:59.310Z,15.17
2018-05-09T00:50:59.313Z,15.07
2018-05-09T00:51:59.311Z,15.10
2018-05-09T00:52:59.321Z,15.07
2018-05-09T00:53:59.314Z,15.04
2018-05-09T00:54:59.312Z,15.09
2018-05-09T00:55:59.315Z,15.09
2018-05-09T00:56:59.315Z,15.14
2018-05-09T00:57:59.401Z,15.09
2018-05-09T00:58:59.315Z,14.97
2018-05-09T00:59:59.317Z,14.97
2018-05-09T01:00:59.325Z,15.06
2018-05-09T01:01:59.319Z,14.92
2018-05-09T01:02:59.330Z,15.00
2018-05-09T01:03:59.319Z,15.07
2018-05-09T01:04:59.319Z,15.09
2018-05-09T01:05:59.321Z,15.00
2018-05-09T01:06:59.320Z,14.91
2018-05-09T01:07:59.320Z,14.99
2018-05-09T01:08:59.325Z,14.96
2018-05-09T01:09:59.324Z,14.96
2018-05-09T01:10:59.322Z,14.91
2018-05-09T01:11:59.338Z,14.88
2018-05-09T01:12:59.328Z,14.91
2018-05-09T01:13:59.326Z,14.92
2018-05-09T01:14:59.324Z,14.82
2018-05-09T01:15:59.329Z,14.82
2018-05-09T01:16:59.325Z,14.84
2018-05-09T01:17:59.325Z,14.72
2018-05-09T01:18:59.330Z,14.77
2018-05-09T01:19:59.327Z,14.72
2018-05-09T01:20:59.327Z,14.79
2018-05-09T01:21:59.328Z,14.70
2018-05-09T01:22:59.326Z,14.78
2018-05-09T01:23:59.328Z,14.73
2018-05-09T01:24:59.328Z,14.59
2018-05-09T01:25:59.332Z,14.69
2018-05-09T01:26:59.328Z,14.65
2018-05-09T01:27:59.344Z,14.66
2018-05-09T01:28:59.331Z,14.63
2018-05-09T01:29:59.337Z,14.55
2018-05-09T01:30:59.330Z,14.60
2018-05-09T01:31:59.331Z,14.53
2018-05-09T01:32:59.332Z,14.54
2018-05-09T01:33:59.331Z,14.63
2018-05-09T01:34:59.338Z,14.55
2018-05-09T01:35:59.332Z,14.58
2018-05-09T01:36:59.337Z,14.59
2018-05-09T01:37:59.334Z,14.55
2018-05-09T01:38:59.331Z,14.55
2018-05-09T01:39:59.331Z,14.55
2018-05-09T01:40:59.338Z,14.55
2018-05-09T01:41:59.337Z,14.51
2018-05-09T01:42:59.687Z,14.51
2018-05-09T01:43:59.339Z,14.55
2018-05-09T01:44:59.339Z,14.50
2018-05-09T01:45:59.337Z,14.51
2018-05-09T01:46:59.339Z,14.59
2018-05-09T01:47:59.336Z,14.50
2018-05-09T01:48:59.348Z,14.55
2018-05-09T01:49:59.336Z,14.54
2018-05-09T01:50:59.334Z,14.55
2018-05-09T01:51:59.344Z,14.53
2018-05-09T01:52:59.343Z,14.51
2018-05-09T01:53:59.340Z,14.51
2018-05-09T01:54:59.370Z,14.50
2018-05-09T01:55:59.335Z,14.41
2018-05-09T01:56:59.337Z,14.44
2018-05-09T01:57:59.334Z,14.33
2018-05-09T01:58:59.340Z,14.41
2018-05-09T01:59:59.336Z,14.40
2018-05-09T02:00:59.336Z,14.37
2018-05-09T02:01:59.334Z,14.28
2018-05-09T02:02:59.354Z,14.26
2018-05-09T02:03:59.344Z,14.23
2018-05-09T02:04:59.334Z,14.22
2018-05-09T02:05:59.386Z,14.08
2018-05-09T02:06:59.335Z,14.17
2018-05-09T02:07:59.344Z,14.08
2018-05-09T02:08:59.334Z,14.11
2018-05-09T02:09:59.338Z,14.11
2018-05-09T02:10:59.334Z,14.15
2018-05-09T02:11:59.334Z,14.17
2018-05-09T02:12:59.334Z,14.12
2018-05-09T02:14:00.091Z,14.11
2018-05-09T02:14:59.342Z,14.07
2018-05-09T02:15:59.335Z,14.07
2018-05-09T02:16:59.332Z,14.10
2018-05-09T02:17:59.333Z,14.11
2018-05-09T02:18:59.334Z,14.08
2018-05-09T02:19:59.333Z,14.04
2018-05-09T02:20:59.336Z,14.03
2018-05-09T02:21:59.335Z,14.08
2018-05-09T02:22:59.345Z,14.05
2018-05-09T02:23:59.397Z,14.04
2018-05-09T02:24:59.338Z,14.03
2018-05-09T02:25:59.334Z,14.00
2018-05-09T02:26:59.336Z,13.95
2018-05-09T02:27:59.337Z,13.93
2018-05-09T02:28:59.331Z,13.99
2018-05-09T02:29:59.333Z,13.97
2018-05-09T02:30:59.335Z,14.04
2018-05-09T02:31:59.341Z,13.95
2018-05-09T02:32:59.347Z,13.99
2018-05-09T02:33:59.337Z,13.99
2018-05-09T02:34:59.333Z,13.89
2018-05-09T02:35:59.339Z,13.92
2018-05-09T02:36:59.342Z,13.89
2018-05-09T02:37:59.331Z,13.89
2018-05-09T02:38:59.329Z,13.89
2018-05-09T02:39:59.338Z,13.79
2018-05-09T02:40:59.333Z,13.85
2018-05-09T02:41:59.331Z,13.86
2018-05-09T02:42:59.333Z,13.89
2018-05-09T02:43:59.332Z,13.87
2018-05-09T02:44:59.329Z,13.83
2018-05-09T02:45:59.330Z,13.87
2018-05-09T02:46:59.344Z,13.86
2018-05-09T02:47:59.329Z,13.86
2018-05-09T02:48:59.328Z,13.86
2018-05-09T02:49:59.437Z,13.83
2018-05-09T02:50:59.336Z,13.89
2018-05-09T02:51:59.354Z,13.85
2018-05-09T02:52:59.327Z,13.78
2018-05-09T02:53:59.327Z,13.72
2018-05-09T02:54:59.326Z,13.75
2018-05-09T02:55:59.325Z,13.71
2018-05-09T02:56:59.326Z,13.70
2018-05-09T02:57:59.325Z,13.70
2018-05-09T02:58:59.324Z,13.68
2018-05-09T02:59:59.323Z,13.68
2018-05-09T03:00:59.323Z,13.56
2018-05-09T03:01:59.323Z,13.62
2018-05-09T03:02:59.328Z,13.59
2018-05-09T03:03:59.323Z,13.59
2018-05-09T03:04:59.322Z,13.57
2018-05-09T03:05:59.323Z,13.53
2018-05-09T03:06:59.324Z,13.50
2018-05-09T03:07:59.320Z,13.56
2018-05-09T03:08:59.319Z,13.59
2018-05-09T03:09:59.318Z,13.54
2018-05-09T03:10:59.322Z,13.49
2018-05-09T03:11:59.324Z,13.56
2018-05-09T03:12:59.316Z,13.49
2018-05-09T03:13:59.316Z,13.50
2018-05-09T03:14:59.314Z,13.50
2018-05-09T03:15:59.315Z,13.46
2018-05-09T03:16:59.314Z,13.52
2018-05-09T03:17:59.315Z,13.50
2018-05-09T03:18:59.312Z,13.42
2018-05-09T03:19:59.312Z,13.41
2018-05-09T03:20:59.315Z,13.42
2018-05-09T03:21:59.310Z,13.46
2018-05-09T03:22:59.311Z,13.42
2018-05-09T03:23:59.309Z,13.30
2018-05-09T03:24:59.308Z,13.38
2018-05-09T03:25:59.308Z,13.39
2018-05-09T03:26:59.310Z,13.41
2018-05-09T03:27:59.307Z,13.46
2018-05-09T03:28:59.307Z,13.44
2018-05-09T03:29:59.306Z,13.38
2018-05-09T03:30:59.365Z,13.42
2018-05-09T03:31:59.305Z,13.37
2018-05-09T03:32:59.304Z,13.47
2018-05-09T03:33:59.303Z,13.46
2018-05-09T03:34:59.304Z,13.41
2018-05-09T03:35:59.301Z,13.42
2018-05-09T03:36:59.304Z,13.42
2018-05-09T03:37:59.304Z,13.46
2018-05-09T03:38:59.299Z,13.52
2018-05-09T03:39:59.298Z,13.46
2018-05-09T03:40:59.299Z,13.41
2018-05-09T03:41:59.299Z,13.47
2018-05-09T03:42:59.296Z,13.46
2018-05-09T03:43:59.296Z,13.49
2018-05-09T03:44:59.295Z,13.44
2018-05-09T03:45:59.295Z,13.38
2018-05-09T03:46:59.293Z,13.35
2018-05-09T03:47:59.341Z,13.41
2018-05-09T03:48:59.301Z,13.35
2018-05-09T03:49:59.296Z,13.20
2018-05-09T03:50:59.297Z,13.22
2018-05-09T03:51:59.291Z,13.23
2018-05-09T03:52:59.292Z,13.23
2018-05-09T03:53:59.292Z,13.23
2018-05-09T03:54:59.296Z,13.19
2018-05-09T03:55:59.292Z,13.18
2018-05-09T03:56:59.289Z,13.22
2018-05-09T03:57:59.286Z,13.18
2018-05-09T03:58:59.286Z,13.19
2018-05-09T03:59:59.286Z,13.22
2018-05-09T04:00:59.287Z,13.18
2018-05-09T04:01:59.284Z,13.16
2018-05-09T04:02:59.282Z,13.18
2018-05-09T04:03:59.284Z,13.22
2018-05-09T04:04:59.286Z,13.23
2018-05-09T04:05:59.284Z,13.18
2018-05-09T04:06:59.279Z,13.18
2018-05-09T04:07:59.278Z,13.25
2018-05-09T04:08:59.277Z,13.20
2018-05-09T04:09:59.278Z,13.28
2018-05-09T04:10:59.278Z,13.25
2018-05-09T04:11:59.276Z,13.22
2018-05-09T04:12:59.275Z,13.27
2018-05-09T04:13:59.273Z,13.20
2018-05-09T04:14:59.272Z,13.22
2018-05-09T04:15:59.271Z,13.30
2018-05-09T04:16:59.662Z,13.39
2018-05-09T04:17:59.269Z,13.44
2018-05-09T04:18:59.270Z,13.33
2018-05-09T04:19:59.272Z,13.35
2018-05-09T04:20:59.301Z,13.38
2018-05-09T04:21:59.275Z,13.35
2018-05-09T04:22:59.266Z,13.37
2018-05-09T04:23:59.265Z,13.37
2018-05-09T04:24:59.265Z,13.37
2018-05-09T04:25:59.266Z,13.41
2018-05-09T04:26:59.262Z,13.35
2018-05-09T04:27:59.262Z,13.35
2018-05-09T04:28:59.265Z,13.37
2018-05-09T04:29:59.263Z,13.46
2018-05-09T04:30:59.262Z,13.38
2018-05-09T04:31:59.265Z,13.39
2018-05-09T04:32:59.259Z,13.35
2018-05-09T04:33:59.261Z,13.42
2018-05-09T04:34:59.260Z,13.37
2018-05-09T04:35:59.258Z,13.31
2018-05-09T04:36:59.255Z,13.37
2018-05-09T04:37:59.256Z,13.33
2018-05-09T04:38:59.254Z,13.39
2018-05-09T04:39:59.253Z,13.35
2018-05-09T04:40:59.254Z,13.35
2018-05-09T04:41:59.310Z,13.35
2018-05-09T04:42:59.252Z,13.30
2018-05-09T04:43:59.252Z,13.33
2018-05-09T04:44:59.251Z,13.33
2018-05-09T04:45:59.251Z,13.37
2018-05-09T04:46:59.251Z,13.37
2018-05-09T04:48:00.089Z,13.41
2018-05-09T04:48:59.247Z,13.38
2018-05-09T04:49:59.246Z,13.37
2018-05-09T04:50:59.244Z,13.44
2018-05-09T04:51:59.244Z,13.44
2018-05-09T04:52:59.245Z,13.46
2018-05-09T04:53:59.243Z,13.47
2018-05-09T04:54:59.244Z,13.47
2018-05-09T04:55:59.239Z,13.54
2018-05-09T04:56:59.243Z,13.56
2018-05-09T04:57:59.241Z,13.54
2018-05-09T04:58:59.237Z,13.62
2018-05-09T04:59:59.238Z,13.60
2018-05-09T05:00:59.239Z,13.56
2018-05-09T05:01:59.238Z,13.63
2018-05-09T05:02:59.237Z,13.62
2018-05-09T05:03:59.238Z,13.67
2018-05-09T05:04:59.235Z,13.65
2018-05-09T05:05:59.236Z,13.67
2018-05-09T05:06:59.297Z,13.74
2018-05-09T05:07:59.237Z,13.81
2018-05-09T05:08:59.235Z,13.96
2018-05-09T05:09:59.235Z,14.08
2018-05-09T05:10:59.230Z,14.08
2018-05-09T05:11:59.229Z,14.35
2018-05-09T05:12:59.230Z,14.45
2018-05-09T05:13:59.230Z,14.58
2018-05-09T05:14:59.229Z,14.77
2018-05-09T05:15:59.230Z,14.88
2018-05-09T05:16:59.228Z,14.96
2018-05-09T05:17:59.229Z,15.06
2018-05-09T05:18:59.228Z,15.04
2018-05-09T05:19:59.229Z,15.11
2018-05-09T05:20:59.229Z,15.25
2018-05-09T05:21:59.237Z,15.22
2018-05-09T05:22:59.250Z,15.27
2018-05-09T05:23:59.231Z,15.42
2018-05-09T05:24:59.235Z,15.39
2018-05-09T05:25:59.230Z,15.57
2018-05-09T05:26:59.240Z,15.79
2018-05-09T05:27:59.251Z,16.17
2018-05-09T05:28:59.235Z,16.42
2018-05-09T05:29:59.234Z,16.68
2018-05-09T05:30:59.236Z,16.93
2018-05-09T05:31:59.234Z,16.96
2018-05-09T05:32:59.237Z,16.96
2018-05-09T05:33:59.237Z,17.09
2018-05-09T05:34:59.239Z,17.34
2018-05-09T05:35:59.239Z,18.00
2018-05-09T05:36:59.241Z,18.50
2018-05-09T05:37:59.243Z,18.47
2018-05-09T05:38:59.261Z,18.26
2018-05-09T05:39:59.264Z,17.98
2018-05-09T05:40:59.247Z,17.79
2018-05-09T05:41:59.247Z,17.60
2018-05-09T05:42:59.249Z,17.46
2018-05-09T05:43:59.253Z,17.36
2018-05-09T05:44:59.368Z,17.24
2018-05-09T05:45:59.306Z,17.02
2018-05-09T05:46:59.255Z,17.02
2018-05-09T05:47:59.258Z,16.99
2018-05-09T05:48:59.260Z,17.06
2018-05-09T05:49:59.270Z,17.09
2018-05-09T05:50:59.264Z,16.99
2018-05-09T05:51:59.346Z,17.05
2018-05-09T05:52:59.276Z,17.45
2018-05-09T05:53:59.271Z,17.41
2018-05-09T05:54:59.272Z,17.31
2018-05-09T05:55:59.364Z,17.20
2018-05-09T05:56:59.275Z,17.05
2018-05-09T05:57:59.278Z,17.09
2018-05-09T05:58:59.278Z,16.94
2018-05-09T05:59:59.278Z,16.71
2018-05-09T06:00:59.281Z,16.58
2018-05-09T06:01:59.282Z,16.56
2018-05-09T06:02:59.284Z,16.42
2018-05-09T06:03:59.286Z,16.46
2018-05-09T06:04:59.288Z,16.42
2018-05-09T06:05:59.306Z,16.41
2018-05-09T06:06:59.289Z,16.39
2018-05-09T06:07:59.374Z,16.58
2018-05-09T06:08:59.293Z,16.58
2018-05-09T06:09:59.297Z,16.65
2018-05-09T06:10:59.300Z,16.83
2018-05-09T06:11:59.298Z,16.78
2018-05-09T06:12:59.301Z,16.83
2018-05-09T06:13:59.306Z,16.86
2018-05-09T06:14:59.301Z,16.89
2018-05-09T06:15:59.311Z,16.99
2018-05-09T06:16:59.322Z,17.19
2018-05-09T06:17:59.306Z,17.14
2018-05-09T06:18:59.308Z,17.27
2018-05-09T06:19:59.359Z,17.31
2018-05-09T06:20:59.315Z,17.44
2018-05-09T06:21:59.312Z,17.46
2018-05-09T06:22:59.313Z,17.54
2018-05-09T06:23:59.383Z,17.54
2018-05-09T06:24:59.318Z,17.51
2018-05-09T06:25:59.356Z,17.56
2018-05-09T06:26:59.321Z,17.59
2018-05-09T06:27:59.332Z,17.57
2018-05-09T06:28:59.334Z,17.68
2018-05-09T06:29:59.335Z,17.70
2018-05-09T06:30:59.340Z,17.65
2018-05-09T06:31:59.343Z,17.74
2018-05-09T06:32:59.335Z,17.71
2018-05-09T06:33:59.343Z,17.70
2018-05-09T06:34:59.338Z,17.68
2018-05-09T06:35:59.340Z,17.59
2018-05-09T06:36:59.342Z,17.65
2018-05-09T06:37:59.346Z,17.60
2018-05-09T06:38:59.360Z,17.51
2018-05-09T06:39:59.348Z,17.52
2018-05-09T06:40:59.535Z,17.52
2018-05-09T06:41:59.380Z,17.51
2018-05-09T06:42:59.442Z,17.46
2018-05-09T06:43:59.355Z,17.57
2018-05-09T06:44:59.357Z,17.46
2018-05-09T06:46:00.491Z,17.48
2018-05-09T06:46:59.366Z,17.51
2018-05-09T06:47:59.365Z,17.60
2018-05-09T06:48:59.366Z,17.59
2018-05-09T06:49:59.465Z,17.56
2018-05-09T06:50:59.734Z,17.54
2018-05-09T06:51:59.371Z,17.57
2018-05-09T06:52:59.372Z,17.45
2018-05-09T06:53:59.375Z,17.48
2018-05-09T06:54:59.375Z,17.59
2018-05-09T06:55:59.382Z,17.52
2018-05-09T06:56:59.387Z,17.51
2018-05-09T06:57:59.382Z,17.57
2018-05-09T06:58:59.438Z,17.57
2018-05-09T06:59:59.433Z,17.48
2018-05-09T07:00:59.388Z,17.49
2018-05-09T07:01:59.390Z,17.46
2018-05-09T07:02:59.435Z,17.51
2018-05-09T07:03:59.393Z,17.60
2018-05-09T07:04:59.395Z,17.56
2018-05-09T07:05:59.413Z,17.45
2018-05-09T07:06:59.399Z,17.60
2018-05-09T07:07:59.438Z,17.63
2018-05-09T07:08:59.409Z,17.56
2018-05-09T07:09:59.406Z,17.72
2018-05-09T07:10:59.433Z,17.71
2018-05-09T07:11:59.414Z,17.87
2018-05-09T07:12:59.413Z,18.00
2018-05-09T07:13:59.412Z,18.04
2018-05-09T07:14:59.414Z,18.15
2018-05-09T07:15:59.422Z,18.25
2018-05-09T07:16:59.421Z,18.34
2018-05-09T07:17:59.423Z,18.41
2018-05-09T07:18:59.429Z,18.35
2018-05-09T07:19:59.439Z,18.41
2018-05-09T07:20:59.433Z,18.44
2018-05-09T07:22:00.138Z,18.49
2018-05-09T07:22:59.431Z,18.55
2018-05-09T07:23:59.435Z,18.59
2018-05-09T07:24:59.439Z,18.73
2018-05-09T07:25:59.439Z,18.70
2018-05-09T07:26:59.457Z,18.81
2018-05-09T07:27:59.445Z,18.89
2018-05-09T07:28:59.446Z,19.08
2018-05-09T07:29:59.497Z,19.09
2018-05-09T07:31:00.192Z,19.18
2018-05-09T07:31:59.466Z,19.19
2018-05-09T07:32:59.458Z,19.33
2018-05-09T07:33:59.459Z,19.34
2018-05-09T07:34:59.462Z,19.40
2018-05-09T07:35:59.466Z,19.49
2018-05-09T07:36:59.468Z,19.55
2018-05-09T07:37:59.473Z,19.67
2018-05-09T07:38:59.481Z,19.69
2018-05-09T07:39:59.478Z,19.73
2018-05-09T07:40:59.481Z,19.77
2018-05-09T07:41:59.486Z,19.91
2018-05-09T07:42:59.487Z,19.95
2018-05-09T07:43:59.490Z,20.03
2018-05-09T07:44:59.494Z,20.11
2018-05-09T07:45:59.498Z,20.21
2018-05-09T07:46:59.501Z,20.22
2018-05-09T07:47:59.581Z,20.32
2018-05-09T07:48:59.508Z,20.43
2018-05-09T07:49:59.536Z,20.41
2018-05-09T07:50:59.543Z,20.63
2018-05-09T07:51:59.518Z,20.69
2018-05-09T07:52:59.545Z,20.72
2018-05-09T07:53:59.530Z,20.75
2018-05-09T07:54:59.533Z,20.92
2018-05-09T07:55:59.538Z,20.92
2018-05-09T07:56:59.543Z,21.02
2018-05-09T07:57:59.541Z,21.09
2018-05-09T07:58:59.554Z,21.12
2018-05-09T07:59:59.683Z,21.09
2018-05-09T08:00:59.552Z,21.15
2018-05-09T08:02:00.445Z,21.21
2018-05-09T08:02:59.612Z,21.24
2018-05-09T08:03:59.565Z,21.14
2018-05-09T08:04:59.576Z,21.12
2018-05-09T08:05:59.665Z,21.15
2018-05-09T08:06:59.582Z,21.18
2018-05-09T08:07:59.582Z,21.22
2018-05-09T08:08:59.586Z,21.20
2018-05-09T08:09:59.620Z,21.18
2018-05-09T08:10:59.593Z,21.07
2018-05-09T08:11:59.597Z,21.05
2018-05-09T08:12:59.600Z,21.06
2018-05-09T08:13:59.615Z,21.03
2018-05-09T08:14:59.612Z,21.15
2018-05-09T08:15:59.613Z,21.15
2018-05-09T08:16:59.618Z,21.06
2018-05-09T08:18:00.158Z,21.11
2018-05-09T08:18:59.627Z,21.18
2018-05-09T08:19:59.631Z,21.27
2018-05-09T08:20:59.634Z,21.35
2018-05-09T08:21:59.639Z,21.45
2018-05-09T08:22:59.641Z,21.50
2018-05-09T08:23:59.650Z,21.37
2018-05-09T08:24:59.671Z,21.32
2018-05-09T08:25:59.659Z,21.33
2018-05-09T08:26:59.657Z,21.30
2018-05-09T08:27:59.662Z,21.30
2018-05-09T08:28:59.673Z,21.39
2018-05-09T08:29:59.671Z,21.50
2018-05-09T08:30:59.675Z,21.48
2018-05-09T08:31:59.683Z,21.66
2018-05-09T08:32:59.684Z,21.60
2018-05-09T08:33:59.691Z,21.66
2018-05-09T08:34:59.717Z,21.72
2018-05-09T08:36:00.069Z,21.62
2018-05-09T08:36:59.700Z,21.62
2018-05-09T08:37:59.706Z,21.60
2018-05-09T08:38:59.716Z,21.77
2018-05-09T08:39:59.718Z,21.89
2018-05-09T08:40:59.722Z,21.99
2018-05-09T08:41:59.725Z,21.99
2018-05-09T08:42:59.734Z,21.99
2018-05-09T08:43:59.774Z,22.00
2018-05-09T08:44:59.734Z,22.10
2018-05-09T08:45:59.871Z,22.10
2018-05-09T08:46:59.744Z,22.18
2018-05-09T08:47:59.764Z,22.28
2018-05-09T08:48:59.753Z,22.39
2018-05-09T08:49:59.767Z,22.62
2018-05-09T08:51:01.533Z,22.85
2018-05-09T08:51:59.766Z,22.90
2018-05-09T08:52:59.772Z,23.00
2018-05-09T08:53:59.782Z,23.27
2018-05-09T08:54:59.783Z,23.71
2018-05-09T08:55:59.785Z,24.17
2018-05-09T08:56:59.794Z,25.16
2018-05-09T08:57:59.800Z,26.06
2018-05-09T08:58:59.805Z,27.12
2018-05-09T08:59:59.806Z,27.87
2018-05-09T09:00:59.812Z,28.27
2018-05-09T09:01:59.820Z,28.39
2018-05-09T09:02:59.830Z,28.67
2018-05-09T09:03:59.834Z,29.31
2018-05-09T09:04:59.841Z,29.79
2018-05-09T09:05:59.846Z,30.13
2018-05-09T09:06:59.855Z,30.57
2018-05-09T09:07:59.861Z,31.05
2018-05-09T09:08:59.874Z,31.76
2018-05-09T09:09:59.877Z,32.21
2018-05-09T09:10:59.882Z,32.34
2018-05-09T09:11:59.892Z,32.64
2018-05-09T09:12:59.939Z,32.45
2018-05-09T09:13:59.914Z,32.04
2018-05-09T09:14:59.933Z,31.64
2018-05-09T09:15:59.927Z,31.56
2018-05-09T09:16:59.941Z,31.99
2018-05-09T09:17:59.948Z,32.40
2018-05-09T09:19:00.019Z,32.77
2018-05-09T09:19:59.967Z,32.46
2018-05-09T09:20:59.978Z,32.30
2018-05-09T09:22:01.536Z,32.43
2018-05-09T09:23:00.000Z,32.75
2018-05-09T09:24:00.008Z,32.70
2018-05-09T09:25:00.018Z,32.96
2018-05-09T09:26:00.030Z,32.77
2018-05-09T09:27:00.042Z,32.80
2018-05-09T09:28:00.056Z,32.51
2018-05-09T09:29:00.063Z,33.01
2018-05-09T09:30:00.073Z,33.32
2018-05-09T09:31:00.084Z,33.86
2018-05-09T09:32:00.097Z,34.33
2018-05-09T09:33:00.107Z,34.57
2018-05-09T09:34:00.125Z,34.50
2018-05-09T09:35:00.131Z,34.80
2018-05-09T09:36:00.139Z,35.15
2018-05-09T09:37:00.169Z,35.51
2018-05-09T09:38:00.177Z,35.78
2018-05-09T09:39:00.178Z,35.85
2018-05-09T09:40:00.192Z,35.68
2018-05-09T09:41:00.210Z,35.34
2018-05-09T09:42:00.213Z,34.55
2018-05-09T09:43:00.225Z,33.53
2018-05-09T09:44:00.236Z,32.59
2018-05-09T09:45:00.251Z,31.89
2018-05-09T09:46:00.268Z,31.12
2018-05-09T09:47:00.308Z,30.54
2018-05-09T09:48:00.289Z,29.81
2018-05-09T09:49:00.332Z,29.17
2018-05-09T09:50:00.311Z,28.76
2018-05-09T09:51:00.320Z,28.47
2018-05-09T09:52:00.326Z,28.14
2018-05-09T09:53:00.334Z,27.95
2018-05-09T09:54:00.357Z,27.74
2018-05-09T09:55:00.408Z,27.59
2018-05-09T09:56:00.367Z,27.35
2018-05-09T09:57:00.377Z,27.12
2018-05-09T09:58:00.381Z,26.95
2018-05-09T09:59:00.392Z,26.90
2018-05-09T10:00:00.404Z,26.58
2018-05-09T10:01:00.407Z,26.52
2018-05-09T10:02:00.435Z,26.29
2018-05-09T10:03:00.426Z,26.06
2018-05-09T10:04:00.432Z,25.93
2018-05-09T10:05:00.443Z,25.63
2018-05-09T10:06:00.447Z,25.53
2018-05-09T10:07:00.765Z,25.46
2018-05-09T10:08:00.546Z,25.51
2018-05-09T10:09:00.469Z,25.55
2018-05-09T10:10:00.477Z,25.60
2018-05-09T10:11:00.482Z,25.65
2018-05-09T10:12:00.494Z,25.55
2018-05-09T10:13:00.512Z,25.51
2018-05-09T10:14:00.503Z,25.26
2018-05-09T10:15:00.519Z,25.13
2018-05-09T10:16:00.631Z,25.11
2018-05-09T10:17:00.524Z,24.88
2018-05-09T10:18:00.532Z,24.78
2018-05-09T10:19:00.536Z,24.77
2018-05-09T10:20:00.554Z,24.77
2018-05-09T10:21:00.552Z,24.91
2018-05-09T10:22:00.580Z,25.11
2018-05-09T10:23:00.566Z,25.41
2018-05-09T10:24:00.575Z,26.03
2018-05-09T10:25:00.584Z,27.18
2018-05-09T10:26:00.598Z,28.30
2018-05-09T10:27:00.732Z,29.41
2018-05-09T10:28:00.598Z,30.23
2018-05-09T10:29:00.607Z,30.80
2018-05-09T10:30:00.624Z,31.31
2018-05-09T10:31:00.627Z,31.97
2018-05-09T10:32:00.793Z,32.27
2018-05-09T10:33:00.641Z,32.45
2018-05-09T10:34:00.652Z,32.58
2018-05-09T10:35:00.660Z,32.83
2018-05-09T10:36:00.877Z,32.96
2018-05-09T10:37:00.685Z,33.28
2018-05-09T10:38:00.704Z,33.20
2018-05-09T10:39:00.702Z,33.23
2018-05-09T10:40:00.721Z,33.57
2018-05-09T10:41:00.730Z,33.89
2018-05-09T10:42:00.739Z,34.30
2018-05-09T10:43:00.747Z,34.57
2018-05-09T10:44:00.763Z,34.38
2018-05-09T10:45:00.771Z,34.30
2018-05-09T10:46:00.784Z,34.61
2018-05-09T10:47:00.844Z,35.05
2018-05-09T10:48:00.809Z,35.41
2018-05-09T10:49:00.824Z,35.55
2018-05-09T10:50:00.848Z,35.78
2018-05-09T10:51:00.846Z,35.80
2018-05-09T10:52:00.861Z,35.66
2018-05-09T10:53:00.881Z,35.55
2018-05-09T10:54:01.055Z,35.49
2018-05-09T10:55:00.916Z,35.45
2018-05-09T10:56:00.941Z,35.19
2018-05-09T10:57:00.928Z,35.15
2018-05-09T10:58:01.164Z,35.15
2018-05-09T10:59:00.958Z,34.93
2018-05-09T11:00:00.986Z,34.54
2018-05-09T11:01:00.986Z,34.11
2018-05-09T11:02:00.999Z,34.16
2018-05-09T11:03:01.029Z,34.67
2018-05-09T11:04:01.030Z,35.02
2018-05-09T11:05:01.050Z,34.74
2018-05-09T11:06:01.057Z,33.39
2018-05-09T11:07:01.067Z,32.08
2018-05-09T11:08:01.078Z,31.29
2018-05-09T11:09:01.092Z,30.66
2018-05-09T11:10:01.117Z,30.16
2018-05-09T11:11:01.118Z,29.91
2018-05-09T11:12:01.332Z,29.14
2018-05-09T11:13:01.142Z,28.33
2018-05-09T11:14:01.163Z,27.98
2018-05-09T11:15:01.162Z,27.95
2018-05-09T11:16:01.176Z,28.44
2018-05-09T11:17:01.207Z,28.57
2018-05-09T11:18:01.195Z,29.45
2018-05-09T11:19:01.207Z,30.13
2018-05-09T11:20:01.216Z,30.09
2018-05-09T11:21:01.227Z,29.72
2018-05-09T11:22:01.241Z,29.41
2018-05-09T11:23:01.248Z,30.05
2018-05-09T11:24:01.256Z,29.90
2018-05-09T11:25:01.267Z,30.28
2018-05-09T11:26:01.278Z,31.28
2018-05-09T11:27:01.290Z,32.08
2018-05-09T11:28:01.307Z,32.73
2018-05-09T11:29:01.760Z,32.78
2018-05-09T11:30:01.321Z,31.99
2018-05-09T11:31:01.337Z,31.33
2018-05-09T11:32:01.344Z,30.70
2018-05-09T11:33:01.350Z,30.28
2018-05-09T11:34:01.380Z,31.10
2018-05-09T11:35:01.369Z,32.12
2018-05-09T11:36:01.386Z,32.58
2018-05-09T11:37:01.392Z,33.00
2018-05-09T11:38:01.402Z,33.62
2018-05-09T11:39:01.418Z,34.20
2018-05-09T11:40:01.438Z,34.57
2018-05-09T11:41:01.435Z,35.23
2018-05-09T11:42:01.446Z,35.52
2018-05-09T11:43:01.470Z,35.90
2018-05-09T11:44:02.125Z,36.18
2018-05-09T11:45:01.481Z,36.58
2018-05-09T11:46:01.500Z,37.01
2018-05-09T11:47:01.836Z,36.42
2018-05-09T11:48:01.521Z,35.17
2018-05-09T11:49:01.534Z,33.87
2018-05-09T11:50:01.740Z,32.96
2018-05-09T11:51:01.572Z,32.03
2018-05-09T11:52:01.942Z,31.20
2018-05-09T11:53:01.787Z,30.94
2018-05-09T11:54:01.594Z,30.69
2018-05-09T11:55:01.607Z,30.28
2018-05-09T11:56:01.621Z,30.16
2018-05-09T11:57:01.627Z,30.13
2018-05-09T11:58:01.639Z,30.00
2018-05-09T11:59:01.667Z,30.00
2018-05-09T12:00:02.123Z,29.79
2018-05-09T12:01:01.673Z,29.60
2018-05-09T12:02:01.680Z,29.13
2018-05-09T12:03:01.689Z,28.97
2018-05-09T12:04:01.701Z,28.74
2018-05-09T12:05:01.713Z,28.51
2018-05-09T12:06:01.738Z,28.42
2018-05-09T12:07:01.731Z,28.23
2018-05-09T12:08:01.741Z,28.27
2018-05-09T12:09:01.745Z,28.15
2018-05-09T12:10:01.768Z,28.14
2018-05-09T12:11:01.762Z,28.15
2018-05-09T12:12:01.772Z,28.14
2018-05-09T12:13:01.791Z,28.17
2018-05-09T12:14:01.792Z,28.05
2018-05-09T12:15:01.804Z,28.02
2018-05-09T12:16:01.874Z,28.00
2018-05-09T12:17:01.835Z,28.04
2018-05-09T12:18:01.823Z,28.11
2018-05-09T12:19:01.831Z,28.04
2018-05-09T12:20:01.842Z,28.10
2018-05-09T12:21:01.848Z,28.05
2018-05-09T12:22:01.868Z,27.89
2018-05-09T12:23:01.876Z,27.74
2018-05-09T12:24:01.870Z,27.75
2018-05-09T12:25:01.879Z,27.70
2018-05-09T12:26:01.887Z,27.48
2018-05-09T12:27:01.895Z,27.45
2018-05-09T12:28:01.903Z,27.33
2018-05-09T12:29:01.911Z,27.17
2018-05-09T12:30:01.944Z,27.08
2018-05-09T12:31:02.526Z,27.17
2018-05-09T12:32:01.935Z,27.18
2018-05-09T12:33:01.940Z,27.22
2018-05-09T12:34:01.948Z,27.15
2018-05-09T12:35:01.956Z,27.14
2018-05-09T12:36:01.962Z,27.17
2018-05-09T12:37:01.970Z,27.11
2018-05-09T12:38:01.980Z,26.93
2018-05-09T12:39:01.986Z,26.93
2018-05-09T12:40:02.008Z,26.73
2018-05-09T12:41:02.008Z,26.66
2018-05-09T12:42:02.012Z,26.53
2018-05-09T12:43:02.012Z,26.59
2018-05-09T12:44:02.031Z,26.48
2018-05-09T12:45:02.027Z,26.38
2018-05-09T12:46:02.041Z,26.44
2018-05-09T12:47:02.045Z,26.48
2018-05-09T12:48:02.054Z,26.48
2018-05-09T12:49:02.057Z,26.63
2018-05-09T12:50:02.113Z,26.63
2018-05-09T12:51:02.093Z,26.65
2018-05-09T12:52:02.075Z,26.77
2018-05-09T12:53:02.083Z,26.80